createdAt,value
2023-02-05T00:02:31.682Z,81.22
2023-02-05T00:05:18.519Z,81.07
2023-02-05T00:08:05.618Z,80.69
2023-02-05T00:10:52.776Z,80.66
2023-02-05T00:13:41.860Z,80.31
2023-02-05T00:16:28.992Z,80.13
2023-02-05T00:19:15.969Z,80.00
2023-02-05T00:22:03.377Z,79.85
2023-02-05T00:24:50.124Z,79.96
2023-02-05T00:27:36.636Z,79.88
2023-02-05T00:30:23.883Z,79.54
2023-02-05T00:33:10.393Z,79.31
2023-02-05T00:35:57.021Z,79.02
2023-02-05T00:38:45.090Z,78.94
2023-02-05T00:41:31.651Z,78.88
2023-02-05T00:44:18.305Z,79.01
2023-02-05T00:47:05.444Z,79.20
2023-02-05T00:49:51.877Z,78.86
2023-02-05T00:52:38.577Z,78.81
2023-02-05T00:55:26.314Z,78.72
2023-02-05T00:58:13.377Z,78.46
2023-02-05T01:00:59.847Z,78.62
2023-02-05T01:03:46.349Z,78.57
2023-02-05T01:06:33.205Z,78.44
2023-02-05T01:09:19.809Z,78.08
2023-02-05T01:12:06.876Z,77.76
2023-02-05T01:14:54.268Z,77.56
2023-02-05T01:17:41.082Z,77.31
2023-02-05T01:20:28.380Z,77.19
2023-02-05T01:23:15.265Z,76.87
2023-02-05T01:26:02.243Z,77.03
2023-02-05T01:28:49.520Z,77.41
2023-02-05T01:31:36.246Z,77.22
2023-02-05T01:34:23.044Z,77.09
2023-02-05T01:37:09.531Z,77.34
2023-02-05T01:39:57.138Z,77.21
2023-02-05T01:42:43.906Z,76.95
2023-02-05T01:45:32.858Z,76.94
2023-02-05T01:48:25.031Z,77.04
2023-02-05T01:51:14.517Z,76.57
2023-02-05T01:54:01.944Z,76.74
2023-02-05T01:57:17.422Z,76.75
2023-02-05T02:00:05.250Z,76.94
2023-02-05T02:02:52.808Z,76.86
2023-02-05T02:05:41.068Z,76.72
2023-02-05T02:08:27.708Z,76.40
2023-02-05T02:11:17.461Z,76.37
2023-02-05T02:14:07.117Z,76.36
2023-02-05T02:16:53.724Z,76.58
2023-02-05T02:20:00.565Z,76.18
2023-02-05T02:22:56.349Z,75.75
2023-02-05T02:26:16.775Z,75.93
2023-02-05T02:29:04.415Z,76.21
2023-02-05T02:32:10.899Z,76.14
2023-02-05T02:35:40.097Z,76.32
2023-02-05T02:38:32.150Z,76.38
2023-02-05T02:41:32.528Z,75.93
2023-02-05T02:44:45.790Z,75.89
2023-02-05T02:47:38.386Z,76.10
2023-02-05T02:50:36.011Z,75.89
2023-02-05T02:53:28.415Z,75.56
2023-02-05T02:56:17.115Z,75.81
2023-02-05T02:59:10.866Z,75.69
2023-02-05T03:02:02.560Z,75.68
2023-02-05T03:04:58.998Z,75.37
2023-02-05T03:07:54.516Z,75.28
2023-02-05T03:10:48.016Z,74.99
2023-02-05T03:13:35.497Z,75.18
2023-02-05T03:16:24.649Z,75.07
2023-02-05T03:19:11.535Z,75.03
2023-02-05T03:22:02.964Z,74.75
2023-02-05T03:24:51.099Z,74.80
2023-02-05T03:27:38.671Z,74.41
2023-02-05T03:30:31.344Z,75.00
2023-02-05T03:38:29.383Z,75.46
2023-02-05T03:41:45.624Z,75.80
2023-02-05T03:45:01.404Z,75.96
2023-02-05T03:48:11.942Z,76.33
2023-02-05T03:51:22.971Z,76.25
2023-02-05T03:54:27.248Z,76.44
2023-02-05T03:57:28.797Z,76.51
2023-02-05T04:00:16.017Z,76.11
2023-02-05T04:03:03.227Z,75.80
2023-02-05T04:05:49.685Z,75.33
2023-02-05T04:08:36.285Z,75.55
2023-02-05T04:11:23.411Z,75.59
2023-02-05T04:14:09.875Z,75.71
2023-02-05T04:16:56.339Z,75.67
2023-02-05T04:19:42.877Z,76.05
2023-02-05T04:22:29.641Z,75.49
2023-02-05T04:25:16.431Z,75.55
2023-02-05T04:28:03.306Z,75.77
2023-02-05T04:30:49.982Z,75.67
2023-02-05T04:33:36.858Z,75.87
2023-02-05T04:36:23.225Z,76.31
2023-02-05T04:39:09.912Z,76.58
2023-02-05T04:41:56.667Z,76.53
2023-02-05T04:44:43.399Z,76.46
2023-02-05T04:47:30.677Z,76.61
2023-02-05T04:50:18.507Z,76.56
2023-02-05T04:53:05.225Z,76.57
2023-02-05T04:55:52.052Z,76.56
2023-02-05T04:58:39.531Z,76.71
2023-02-05T05:01:26.151Z,76.59
2023-02-05T05:04:12.860Z,76.69
2023-02-05T05:06:59.545Z,77.00
2023-02-05T05:09:45.914Z,76.85
2023-02-05T05:12:33.187Z,76.96
2023-02-05T05:15:19.841Z,76.76
2023-02-05T05:18:06.503Z,76.85
2023-02-05T05:20:53.331Z,76.50
2023-02-05T05:23:39.879Z,76.39
2023-02-05T05:26:26.645Z,76.66
2023-02-05T05:29:14.457Z,76.66
2023-02-05T05:32:01.744Z,76.75
2023-02-05T05:34:48.445Z,76.79
2023-02-05T05:37:34.855Z,76.82
2023-02-05T05:40:39.741Z,76.80
2023-02-05T05:43:45.306Z,77.15
2023-02-05T05:46:32.006Z,76.93
2023-02-05T05:49:18.649Z,76.83
2023-02-05T05:52:05.518Z,76.63
2023-02-05T05:55:18.865Z,76.56
2023-02-05T05:58:07.033Z,76.80
2023-02-05T06:00:54.998Z,77.15
2023-02-05T06:03:43.315Z,77.12
2023-02-05T06:06:29.587Z,77.12
2023-02-05T06:09:16.330Z,76.99
2023-02-05T06:12:03.163Z,76.77
2023-02-05T06:14:49.494Z,76.51
2023-02-05T06:17:36.327Z,76.60
2023-02-05T06:20:22.878Z,76.28
2023-02-05T06:23:10.167Z,76.50
2023-02-05T06:25:57.187Z,76.67
2023-02-05T06:28:43.833Z,76.59
2023-02-05T06:31:33.246Z,76.82
2023-02-05T06:34:20.144Z,76.69
2023-02-05T06:37:10.230Z,76.58
2023-02-05T06:39:57.960Z,76.79
2023-02-05T06:42:46.067Z,76.16
2023-02-05T06:45:32.969Z,76.26
2023-02-05T06:48:22.641Z,76.71
2023-02-05T06:51:11.379Z,76.22
2023-02-05T06:54:00.645Z,76.18
2023-02-05T06:56:47.903Z,76.09
2023-02-05T06:59:34.524Z,75.95
2023-02-05T07:02:24.680Z,76.21
2023-02-05T07:05:15.219Z,76.26
2023-02-05T07:08:04.251Z,75.70
2023-02-05T07:10:51.546Z,76.03
2023-02-05T07:13:38.387Z,76.03
2023-02-05T07:16:25.083Z,76.05
2023-02-05T07:19:11.783Z,75.57
2023-02-05T07:21:58.462Z,75.40
2023-02-05T07:24:45.404Z,75.30
2023-02-05T07:27:32.950Z,75.17
2023-02-05T07:30:22.289Z,74.82
2023-02-05T07:33:10.249Z,74.81
2023-02-05T07:36:08.125Z,74.30
2023-02-05T07:38:54.810Z,73.93
2023-02-05T07:41:41.177Z,73.37
2023-02-05T07:44:27.648Z,72.96
2023-02-05T07:47:16.003Z,72.44
2023-02-05T07:50:02.521Z,71.94
2023-02-05T07:52:50.359Z,71.18
2023-02-05T07:55:36.674Z,71.25
2023-02-05T07:58:26.102Z,71.15
2023-02-05T08:01:13.536Z,70.49
2023-02-05T08:04:02.274Z,69.43
2023-02-05T08:06:49.690Z,68.03
2023-02-05T08:09:36.266Z,67.89
2023-02-05T08:12:23.009Z,67.08
2023-02-05T08:15:10.095Z,66.02
2023-02-05T08:17:56.476Z,63.48
2023-02-05T08:20:43.040Z,61.13
2023-02-05T08:23:29.622Z,59.03
2023-02-05T08:26:17.837Z,57.64
2023-02-05T08:29:04.841Z,56.65
2023-02-05T08:31:51.351Z,54.40
2023-02-05T08:34:45.552Z,54.12
2023-02-05T08:37:33.043Z,53.83
2023-02-05T08:40:20.450Z,53.68
2023-02-05T08:43:08.699Z,56.02
2023-02-05T08:45:55.294Z,58.33
2023-02-05T08:48:42.416Z,60.45
2023-02-05T08:51:30.627Z,62.06
2023-02-05T08:54:17.275Z,62.24
2023-02-05T08:57:05.928Z,60.13
2023-02-05T08:59:55.935Z,57.79
2023-02-05T09:02:43.357Z,55.41
2023-02-05T09:05:29.847Z,53.53
2023-02-05T09:08:16.634Z,55.39
2023-02-05T09:11:03.679Z,57.53
2023-02-05T09:13:54.328Z,58.73
2023-02-05T09:16:41.569Z,59.08
2023-02-05T09:19:28.416Z,59.00
2023-02-05T09:22:15.019Z,58.49
2023-02-05T09:25:03.606Z,57.93
2023-02-05T09:27:50.275Z,57.65
2023-02-05T09:30:39.169Z,57.69
2023-02-05T09:33:26.569Z,57.35
2023-02-05T09:36:18.873Z,56.86
2023-02-05T09:39:16.843Z,59.09
2023-02-05T09:42:35.073Z,59.92
2023-02-05T09:45:42.718Z,60.18
2023-02-05T09:48:49.648Z,61.34
2023-02-05T09:51:46.395Z,61.54
2023-02-05T09:54:38.735Z,61.35
2023-02-05T09:57:39.545Z,61.48
2023-02-05T10:00:30.737Z,61.15
2023-02-05T10:04:01.086Z,61.40
2023-02-05T10:06:54.595Z,61.52
2023-02-05T10:09:54.892Z,61.93
2023-02-05T10:13:06.404Z,62.15
2023-02-05T10:16:40.427Z,62.03
2023-02-05T10:20:03.280Z,62.19
2023-02-05T10:23:17.747Z,62.29
2023-02-05T10:26:12.365Z,62.39
2023-02-05T10:29:35.666Z,62.65
2023-02-05T10:32:24.629Z,62.20
2023-02-05T10:35:24.976Z,62.42
2023-02-05T10:38:21.289Z,61.96
2023-02-05T10:41:20.206Z,62.14
2023-02-05T10:44:22.349Z,62.21
2023-02-05T10:47:41.609Z,61.70
2023-02-05T10:50:47.724Z,61.87
2023-02-05T10:53:36.352Z,61.31
2023-02-05T10:56:25.370Z,61.61
2023-02-05T10:59:22.410Z,61.84
2023-02-05T11:02:09.888Z,61.99
2023-02-05T11:05:01.589Z,62.46
2023-02-05T11:07:50.969Z,62.59
2023-02-05T11:10:38.233Z,62.19
2023-02-05T11:13:25.155Z,61.68
2023-02-05T11:16:12.786Z,61.21
2023-02-05T11:19:01.455Z,60.80
2023-02-05T11:21:55.713Z,60.83
2023-02-05T11:24:42.684Z,61.10
2023-02-05T11:27:32.828Z,60.60
2023-02-05T11:30:55.883Z,60.40
2023-02-05T11:34:22.014Z,60.75
2023-02-05T11:38:02.331Z,61.37
2023-02-05T11:41:58.055Z,61.47
2023-02-05T11:45:45.171Z,61.60
2023-02-05T11:52:44.950Z,61.91
2023-02-05T11:56:56.337Z,61.46
2023-02-05T12:00:29.947Z,61.26
2023-02-05T12:04:11.783Z,62.25
2023-02-05T12:07:57.653Z,62.86
2023-02-05T12:12:07.048Z,63.24
2023-02-05T12:15:35.617Z,63.40
2023-02-05T12:19:55.112Z,63.12
2023-02-05T12:23:57.521Z,63.48
2023-02-05T12:30:31.741Z,63.26
2023-02-05T12:34:33.563Z,63.11
2023-02-05T12:38:51.827Z,62.97
2023-02-05T12:42:43.199Z,62.45
2023-02-05T12:51:32.876Z,62.47
2023-02-05T12:55:24.384Z,62.55
2023-02-05T12:58:54.052Z,62.36
2023-02-05T13:02:11.931Z,62.65
2023-02-05T13:09:53.534Z,62.65
2023-02-05T13:13:39.925Z,63.21
2023-02-05T13:17:42.001Z,62.92
2023-02-05T13:21:49.406Z,63.57
2023-02-05T13:26:05.148Z,63.90
2023-02-05T13:29:57.721Z,63.70
2023-02-05T13:33:02.997Z,63.75
2023-02-05T13:36:40.683Z,63.32
2023-02-05T13:40:42.273Z,63.21
2023-02-05T13:47:40.178Z,63.15
2023-02-05T13:50:55.376Z,63.17
2023-02-05T13:54:17.418Z,63.30
2023-02-05T13:57:41.707Z,63.39
2023-02-05T14:00:29.254Z,63.62
2023-02-05T14:03:31.772Z,63.41
2023-02-05T14:06:38.888Z,63.34
2023-02-05T14:09:37.756Z,63.38
2023-02-05T14:12:30.470Z,63.37
2023-02-05T14:15:18.408Z,63.45
2023-02-05T14:18:08.027Z,63.30
2023-02-05T14:20:54.657Z,62.73
2023-02-05T14:23:47.863Z,62.45
2023-02-05T14:26:51.417Z,61.68
2023-02-05T14:29:47.122Z,61.42
2023-02-05T14:32:40.120Z,61.87
2023-02-05T14:35:33.311Z,62.09
2023-02-05T14:38:31.252Z,62.21
2023-02-05T14:41:29.118Z,62.14
2023-02-05T14:44:23.804Z,61.99
2023-02-05T14:47:27.488Z,62.01
2023-02-05T14:50:28.438Z,62.28
2023-02-05T14:53:30.265Z,62.38
2023-02-05T14:56:40.809Z,62.65
2023-02-05T14:59:38.492Z,63.09
2023-02-05T15:02:59.151Z,63.07
2023-02-05T15:05:50.698Z,63.63
2023-02-05T15:08:49.306Z,63.51
2023-02-05T15:12:28.289Z,63.98
2023-02-05T15:15:35.745Z,64.37
2023-02-05T15:18:33.131Z,65.01
2023-02-05T15:21:26.068Z,65.02
2023-02-05T15:24:24.792Z,65.24
2023-02-05T15:27:23.627Z,65.49
2023-02-05T15:30:18.473Z,65.37
2023-02-05T15:33:30.061Z,65.25
2023-02-05T15:36:43.768Z,65.65
2023-02-05T15:39:58.497Z,66.01
2023-02-05T15:42:51.898Z,66.10
2023-02-05T15:45:44.971Z,66.11
2023-02-05T15:48:34.775Z,65.81
2023-02-05T15:51:28.132Z,65.87
2023-02-05T15:54:21.353Z,65.84
2023-02-05T15:57:16.280Z,66.10
2023-02-05T16:00:07.975Z,66.23
2023-02-05T16:02:57.875Z,66.24
2023-02-05T16:05:52.960Z,66.23
2023-02-05T16:08:47.416Z,65.98
2023-02-05T16:11:35.952Z,66.09
2023-02-05T16:14:33.734Z,66.61
2023-02-05T16:17:28.762Z,66.59
2023-02-05T16:20:32.466Z,66.82
2023-02-05T16:23:38.147Z,66.78
2023-02-05T16:26:28.947Z,66.46
2023-02-05T16:29:36.121Z,66.83
2023-02-05T16:32:35.736Z,66.56
2023-02-05T16:35:27.217Z,66.63
2023-02-05T16:38:20.842Z,66.57
2023-02-05T16:41:25.944Z,66.11
2023-02-05T16:44:32.900Z,66.20
2023-02-05T16:47:20.695Z,66.47
2023-02-05T16:50:33.163Z,66.80
2023-02-05T16:53:26.867Z,66.88
2023-02-05T16:56:27.197Z,67.42
2023-02-05T16:59:23.340Z,67.25
2023-02-05T17:02:29.543Z,67.39
2023-02-05T17:05:28.017Z,67.48
2023-02-05T17:08:15.072Z,67.18
2023-02-05T17:11:06.928Z,66.92
2023-02-05T17:14:12.578Z,67.18
2023-02-05T17:17:04.610Z,66.98
2023-02-05T17:20:11.798Z,67.29
2023-02-05T17:22:59.359Z,67.13
2023-02-05T17:25:56.081Z,66.33
2023-02-05T17:28:50.295Z,66.42
2023-02-05T17:31:39.355Z,66.75
2023-02-05T17:34:27.122Z,66.78
2023-02-05T17:37:15.675Z,66.29
2023-02-05T17:40:02.987Z,66.01
2023-02-05T17:42:50.280Z,66.12
2023-02-05T17:45:41.194Z,66.02
2023-02-05T17:48:28.277Z,66.07
2023-02-05T17:51:20.744Z,66.23
2023-02-05T17:54:34.226Z,66.56
2023-02-05T17:57:22.748Z,66.50
2023-02-05T18:00:25.296Z,66.23
2023-02-05T18:03:12.598Z,66.82
2023-02-05T18:06:00.648Z,67.21
2023-02-05T18:08:47.944Z,66.95
2023-02-05T18:11:35.685Z,66.99
2023-02-05T18:14:23.960Z,67.20
2023-02-05T18:17:11.487Z,67.01
2023-02-05T18:19:58.768Z,67.35
2023-02-05T18:22:49.952Z,67.37
2023-02-05T18:25:39.483Z,67.29
2023-02-05T18:28:28.626Z,67.44
2023-02-05T18:31:16.023Z,67.82
2023-02-05T18:34:07.392Z,68.18
2023-02-05T18:36:55.050Z,68.54
2023-02-05T18:39:43.780Z,68.52
2023-02-05T18:42:30.937Z,68.40
2023-02-05T18:45:19.198Z,68.77
2023-02-05T18:48:06.748Z,69.35
2023-02-05T18:50:54.808Z,69.90
2023-02-05T18:53:44.880Z,70.17
2023-02-05T18:56:32.509Z,70.06
2023-02-05T18:59:21.498Z,70.27
2023-02-05T19:02:10.929Z,70.75
2023-02-05T19:04:58.382Z,70.87
2023-02-05T19:07:48.235Z,71.54
2023-02-05T19:10:37.464Z,71.74
2023-02-05T19:13:25.158Z,72.09
2023-02-05T19:16:18.413Z,72.25
2023-02-05T19:19:07.486Z,72.71
2023-02-05T19:22:00.248Z,72.86
2023-02-05T19:24:48.419Z,73.02
2023-02-05T19:27:36.103Z,73.32
2023-02-05T19:30:24.169Z,73.65
2023-02-05T19:33:14.895Z,73.68
2023-02-05T19:36:04.647Z,74.09
2023-02-05T19:38:52.952Z,74.20
2023-02-05T19:41:41.847Z,74.49
2023-02-05T19:44:31.229Z,75.50
2023-02-05T19:47:18.685Z,75.48
2023-02-05T19:50:06.055Z,75.61
2023-02-05T19:52:53.732Z,75.62
2023-02-05T19:55:40.505Z,75.85
2023-02-05T19:58:27.577Z,76.09
2023-02-05T20:01:15.796Z,76.29
2023-02-05T20:04:09.629Z,76.52
2023-02-05T20:06:59.914Z,76.80
2023-02-05T20:09:48.969Z,76.78
2023-02-05T20:12:35.330Z,76.86
2023-02-05T20:15:22.052Z,76.91
2023-02-05T20:18:08.573Z,77.31
2023-02-05T20:20:57.951Z,77.70
2023-02-05T20:23:44.853Z,77.64
2023-02-05T20:26:31.855Z,77.90
2023-02-05T20:29:36.946Z,78.13
2023-02-05T20:32:23.485Z,78.40
2023-02-05T20:35:09.833Z,78.71
2023-02-05T20:37:56.303Z,78.65
2023-02-05T20:40:42.886Z,79.19
2023-02-05T20:43:29.448Z,80.19
2023-02-05T20:46:16.344Z,80.53
2023-02-05T20:49:03.549Z,80.59
2023-02-05T20:51:50.301Z,80.07
2023-02-05T20:54:36.974Z,80.08
2023-02-05T20:57:23.184Z,79.94
2023-02-05T21:00:11.387Z,80.09
2023-02-05T21:02:57.904Z,79.99
2023-02-05T21:05:44.756Z,80.03
2023-02-05T21:08:32.905Z,80.15
2023-02-05T21:11:21.092Z,80.23
2023-02-05T21:14:08.446Z,80.36
2023-02-05T21:16:54.772Z,80.57
2023-02-05T21:19:41.474Z,81.06
2023-02-05T21:22:28.961Z,81.10
2023-02-05T21:25:15.217Z,81.51
2023-02-05T21:28:01.826Z,81.71
2023-02-05T21:30:51.252Z,81.87
2023-02-05T21:33:37.778Z,82.02
2023-02-05T21:36:25.047Z,82.31
2023-02-05T21:39:17.656Z,82.34
2023-02-05T21:42:03.958Z,82.45
2023-02-05T21:44:53.731Z,82.61
2023-02-05T21:47:40.343Z,82.58
2023-02-05T21:50:27.025Z,82.89
2023-02-05T21:56:30.644Z,83.18
2023-02-05T21:59:17.238Z,83.19
2023-02-05T22:02:03.818Z,83.23
2023-02-05T22:04:50.466Z,83.73
2023-02-05T22:07:37.329Z,83.61
2023-02-05T22:10:23.486Z,83.37
2023-02-05T22:13:16.215Z,83.61
2023-02-05T22:16:05.425Z,83.71
2023-02-05T22:18:53.469Z,83.79
2023-02-05T22:21:42.418Z,83.72
2023-02-05T22:24:28.968Z,83.58
2023-02-05T22:27:15.659Z,83.26
2023-02-05T22:30:02.297Z,83.42
2023-02-05T22:32:48.686Z,83.35
2023-02-05T22:35:35.135Z,83.68
2023-02-05T22:38:21.546Z,83.95
2023-02-05T22:41:16.712Z,84.55
2023-02-05T22:44:04.978Z,85.25
2023-02-05T22:46:52.929Z,85.80
2023-02-05T22:49:39.479Z,85.94
2023-02-05T22:52:26.254Z,85.39
2023-02-05T22:55:12.850Z,85.34
2023-02-05T22:57:59.609Z,84.97
2023-02-05T23:00:46.386Z,84.64
2023-02-05T23:03:34.562Z,84.59
2023-02-05T23:06:23.901Z,84.61
2023-02-05T23:09:16.443Z,84.58
2023-02-05T23:12:03.304Z,84.92
2023-02-05T23:14:49.910Z,85.09
2023-02-05T23:17:36.177Z,85.39
2023-02-05T23:20:22.761Z,85.57
2023-02-05T23:23:09.392Z,85.32
2023-02-05T23:25:56.177Z,84.79
2023-02-05T23:28:42.988Z,84.82
2023-02-05T23:31:30.325Z,84.86
2023-02-05T23:34:16.927Z,85.02
2023-02-05T23:37:03.839Z,84.53
2023-02-05T23:39:52.489Z,84.75
2023-02-05T23:42:39.108Z,84.99
2023-02-05T23:45:25.413Z,85.31
2023-02-05T23:48:12.478Z,85.46
2023-02-05T23:50:59.232Z,85.49
2023-02-05T23:53:45.807Z,85.38
2023-02-05T23:56:32.325Z,85.37
2023-02-05T23:59:18.979Z,85.17
